createdAt,value
2018-12-06T00:00:13.503Z,2.30
2018-12-06T00:02:40.230Z,2.40
2018-12-06T00:05:06.971Z,2.30
2018-12-06T00:07:33.674Z,2.40
2018-12-06T00:10:00.407Z,2.40
2018-12-06T00:12:27.116Z,2.40
2018-12-06T00:14:58.494Z,2.40
2018-12-06T00:17:25.207Z,2.40
2018-12-06T00:19:51.944Z,2.40
2018-12-06T00:22:18.663Z,2.40
2018-12-06T00:24:45.395Z,2.40
2018-12-06T00:27:12.230Z,2.40
2018-12-06T00:29:38.963Z,2.40
2018-12-06T00:32:05.678Z,2.40
2018-12-06T00:34:32.406Z,2.40
2018-12-06T00:36:59.114Z,2.40
2018-12-06T00:39:25.846Z,2.40
2018-12-06T00:41:52.559Z,2.40
2018-12-06T00:44:19.335Z,2.40
2018-12-06T00:46:46.051Z,2.40
2018-12-06T00:49:12.787Z,2.40
2018-12-06T00:51:39.494Z,2.40
2018-12-06T00:54:06.226Z,2.40
2018-12-06T00:56:32.943Z,2.40
2018-12-06T00:58:59.679Z,2.40
2018-12-06T01:01:26.406Z,2.30
2018-12-06T01:03:53.139Z,2.30
2018-12-06T01:06:19.886Z,2.30
2018-12-06T01:08:46.618Z,2.30
2018-12-06T01:11:13.327Z,2.30
2018-12-06T01:13:40.034Z,2.30
2018-12-06T01:16:06.766Z,2.30
2018-12-06T01:18:33.477Z,2.20
2018-12-06T01:21:00.312Z,2.20
2018-12-06T01:23:34.001Z,2.20
2018-12-06T01:26:00.731Z,2.20
2018-12-06T01:28:27.444Z,2.20
2018-12-06T01:30:54.191Z,2.20
2018-12-06T01:33:20.913Z,2.20
2018-12-06T01:35:48.154Z,2.30
2018-12-06T01:38:14.854Z,2.30
2018-12-06T01:40:41.591Z,2.30
2018-12-06T01:43:08.702Z,2.30
2018-12-06T01:45:35.439Z,2.30
2018-12-06T01:48:02.155Z,2.30
2018-12-06T01:50:28.995Z,2.30
2018-12-06T01:52:55.694Z,2.30
2018-12-06T01:55:22.459Z,2.30
2018-12-06T01:57:49.166Z,2.30
2018-12-06T02:00:15.899Z,2.40
2018-12-06T02:02:42.606Z,2.40
2018-12-06T02:05:10.356Z,2.40
2018-12-06T02:07:37.069Z,2.40
2018-12-06T02:10:04.214Z,2.40
2018-12-06T02:12:30.918Z,2.50
2018-12-06T02:14:57.650Z,2.50
2018-12-06T02:17:24.354Z,2.40
2018-12-06T02:19:51.086Z,2.50
2018-12-06T02:22:17.807Z,2.50
2018-12-06T02:24:44.539Z,2.50
2018-12-06T02:27:11.238Z,2.50
2018-12-06T02:29:43.755Z,2.50
2018-12-06T02:32:10.472Z,2.50
2018-12-06T02:34:37.303Z,2.50
2018-12-06T02:37:04.035Z,2.50
2018-12-06T02:39:30.744Z,2.50
2018-12-06T02:41:57.483Z,2.50
2018-12-06T02:44:24.302Z,2.50
2018-12-06T02:46:51.035Z,2.60
2018-12-06T02:49:19.652Z,2.60
2018-12-06T02:51:46.398Z,2.60
2018-12-06T02:54:13.138Z,2.60
2018-12-06T02:56:39.874Z,2.60
2018-12-06T02:59:06.588Z,2.60
2018-12-06T03:01:33.322Z,2.60
2018-12-06T03:04:00.042Z,2.60
2018-12-06T03:06:27.883Z,2.60
2018-12-06T03:08:54.584Z,2.60
2018-12-06T03:11:21.326Z,2.60
2018-12-06T03:13:48.043Z,2.70
2018-12-06T03:16:14.783Z,2.70
2018-12-06T03:18:41.503Z,2.70
2018-12-06T03:21:08.239Z,2.70
2018-12-06T03:23:34.964Z,2.70
2018-12-06T03:26:01.703Z,2.70
2018-12-06T03:28:28.403Z,2.70
2018-12-06T03:30:55.155Z,2.60
2018-12-06T03:33:21.989Z,2.70
2018-12-06T03:35:48.826Z,2.70
2018-12-06T03:38:15.535Z,2.70
2018-12-06T03:40:42.263Z,2.70
2018-12-06T03:43:08.984Z,2.70
2018-12-06T03:45:35.755Z,2.70
2018-12-06T03:48:02.473Z,2.70
2018-12-06T03:50:29.182Z,2.80
2018-12-06T03:52:56.034Z,2.80
2018-12-06T03:55:22.765Z,2.80
2018-12-06T03:57:49.517Z,2.80
2018-12-06T04:00:16.226Z,2.80
2018-12-06T04:02:42.963Z,2.80
2018-12-06T04:05:09.685Z,2.90
2018-12-06T04:07:36.428Z,2.90
2018-12-06T04:10:03.760Z,2.80
2018-12-06T04:12:30.503Z,2.80
2018-12-06T04:14:57.312Z,2.80
2018-12-06T04:17:24.075Z,2.80
2018-12-06T04:19:50.791Z,2.80
2018-12-06T04:22:17.641Z,2.80
2018-12-06T04:24:44.375Z,2.80
2018-12-06T04:27:11.115Z,2.80
2018-12-06T04:29:37.827Z,2.90
2018-12-06T04:32:04.763Z,2.90
2018-12-06T04:34:31.479Z,2.90
2018-12-06T04:36:58.213Z,2.90
2018-12-06T04:39:24.922Z,2.90
2018-12-06T04:41:51.655Z,2.90
2018-12-06T04:44:18.395Z,3.00
2018-12-06T04:46:45.130Z,3.00
2018-12-06T04:49:11.830Z,3.00
2018-12-06T04:51:38.564Z,3.00
2018-12-06T04:54:05.298Z,3.00
2018-12-06T04:56:32.031Z,3.00
2018-12-06T04:58:58.739Z,3.00
2018-12-06T05:01:25.483Z,3.00
2018-12-06T05:03:52.186Z,3.00
2018-12-06T05:06:18.989Z,3.00
2018-12-06T05:08:45.738Z,3.00
2018-12-06T05:11:12.446Z,3.00
2018-12-06T05:13:39.182Z,3.00
2018-12-06T05:16:05.886Z,2.90
2018-12-06T05:18:32.635Z,2.70
2018-12-06T05:20:59.334Z,2.60
2018-12-06T05:23:26.083Z,2.50
2018-12-06T05:25:52.821Z,2.40
2018-12-06T05:28:19.555Z,2.30
2018-12-06T05:30:46.267Z,2.20
2018-12-06T05:33:13.003Z,2.20
2018-12-06T05:35:39.714Z,2.20
2018-12-06T05:38:06.458Z,2.20
2018-12-06T05:40:33.158Z,2.20
2018-12-06T05:42:59.892Z,2.20
2018-12-06T05:45:26.607Z,2.20
2018-12-06T05:47:53.330Z,2.20
2018-12-06T05:50:20.036Z,2.20
2018-12-06T05:52:46.771Z,2.20
2018-12-06T05:55:13.480Z,2.20
2018-12-06T05:57:40.206Z,2.20
2018-12-06T06:00:07.138Z,2.20
2018-12-06T06:02:33.870Z,2.30
2018-12-06T06:05:00.603Z,2.30
2018-12-06T06:07:27.340Z,2.30
2018-12-06T06:09:54.050Z,2.30
2018-12-06T06:12:20.778Z,2.40
2018-12-06T06:14:47.487Z,2.50
2018-12-06T06:17:14.215Z,2.50
2018-12-06T06:19:40.917Z,2.50
2018-12-06T06:22:07.631Z,2.60
2018-12-06T06:24:34.367Z,2.60
2018-12-06T06:27:01.070Z,2.60
2018-12-06T06:29:27.795Z,2.70
2018-12-06T06:31:54.498Z,2.70
2018-12-06T06:34:21.230Z,2.80
2018-12-06T06:36:47.939Z,2.90
2018-12-06T06:39:14.666Z,2.90
2018-12-06T06:41:41.375Z,3.00
2018-12-06T06:44:08.135Z,3.00
2018-12-06T06:46:34.839Z,3.00
2018-12-06T06:49:01.574Z,3.00
2018-12-06T06:51:28.278Z,3.00
2018-12-06T06:53:55.038Z,3.00
2018-12-06T06:56:21.777Z,2.90
2018-12-06T06:58:48.714Z,2.90
2018-12-06T07:01:15.435Z,2.80
2018-12-06T07:03:42.275Z,2.80
2018-12-06T07:06:08.993Z,2.80
2018-12-06T07:08:35.731Z,2.80
2018-12-06T07:11:02.448Z,2.70
2018-12-06T07:13:29.191Z,2.70
2018-12-06T07:15:55.916Z,2.60
2018-12-06T07:18:22.651Z,2.60
2018-12-06T07:20:49.362Z,2.50
2018-12-06T07:23:16.103Z,2.50
2018-12-06T07:25:46.185Z,2.50
2018-12-06T07:28:11.586Z,2.50
2018-12-06T07:30:38.300Z,2.50
2018-12-06T07:33:05.039Z,2.60
2018-12-06T07:35:32.278Z,2.60
2018-12-06T07:37:59.191Z,2.60
2018-12-06T07:40:25.895Z,2.70
2018-12-06T07:42:52.598Z,2.70
2018-12-06T07:45:19.378Z,2.70
2018-12-06T07:47:46.082Z,2.70
2018-12-06T07:50:12.843Z,2.70
2018-12-06T07:52:39.550Z,2.70
2018-12-06T07:55:06.279Z,2.70
2018-12-06T07:57:32.986Z,2.70
2018-12-06T07:59:59.747Z,2.80
2018-12-06T08:02:26.654Z,2.80
2018-12-06T08:04:53.382Z,2.90
2018-12-06T08:07:20.095Z,2.90
2018-12-06T08:09:46.876Z,3.00
2018-12-06T08:12:13.682Z,3.00
2018-12-06T08:14:40.410Z,3.00
2018-12-06T08:17:07.115Z,3.10
2018-12-06T08:19:33.851Z,3.10
2018-12-06T08:22:00.542Z,3.10
2018-12-06T08:24:27.287Z,3.20
2018-12-06T08:26:53.995Z,3.20
2018-12-06T08:29:20.722Z,3.20
2018-12-06T08:31:47.567Z,3.20
2018-12-06T08:34:14.298Z,3.30
2018-12-06T08:36:41.215Z,3.40
2018-12-06T08:39:07.945Z,3.40
2018-12-06T08:41:34.646Z,3.40
2018-12-06T08:44:01.383Z,3.50
2018-12-06T08:46:28.095Z,3.50
2018-12-06T08:48:54.855Z,3.60
2018-12-06T08:51:21.574Z,3.60
2018-12-06T08:53:48.302Z,3.70
2018-12-06T08:56:15.126Z,3.80
2018-12-06T08:58:41.891Z,3.80
2018-12-06T09:01:08.698Z,3.90
2018-12-06T09:03:35.554Z,4.30
2018-12-06T09:06:02.287Z,4.70
2018-12-06T09:08:29.790Z,4.90
2018-12-06T09:10:56.505Z,4.70
2018-12-06T09:13:55.499Z,4.50
2018-12-06T09:16:22.227Z,4.40
2018-12-06T09:18:49.144Z,4.30
2018-12-06T09:21:15.859Z,4.30
2018-12-06T09:23:42.571Z,4.20
2018-12-06T09:26:09.481Z,4.20
2018-12-06T09:28:36.227Z,4.10
2018-12-06T09:31:02.992Z,4.10
2018-12-06T09:33:29.702Z,4.10
2018-12-06T09:35:56.416Z,4.10
2018-12-06T09:38:23.138Z,4.10
2018-12-06T09:40:49.856Z,4.10
2018-12-06T09:43:18.190Z,4.10
2018-12-06T09:45:44.898Z,4.10
2018-12-06T09:48:11.610Z,4.20
2018-12-06T09:50:38.326Z,4.20
2018-12-06T09:53:05.039Z,4.10
2018-12-06T09:55:31.755Z,4.20
2018-12-06T09:57:58.466Z,4.20
2018-12-06T10:00:25.376Z,4.30
2018-12-06T10:02:52.083Z,4.30
2018-12-06T10:05:18.799Z,4.30
2018-12-06T10:07:45.506Z,4.20
2018-12-06T10:10:12.209Z,4.20
2018-12-06T10:12:38.923Z,4.20
2018-12-06T10:15:05.663Z,4.10
2018-12-06T10:17:32.375Z,4.10
2018-12-06T10:19:59.096Z,4.10
2018-12-06T10:22:25.806Z,4.10
2018-12-06T10:24:52.524Z,4.10
2018-12-06T10:27:21.158Z,4.10
2018-12-06T10:29:47.862Z,4.00
2018-12-06T10:32:14.578Z,4.10
2018-12-06T10:34:41.279Z,4.10
2018-12-06T10:37:08.199Z,4.10
2018-12-06T10:39:34.908Z,4.10
2018-12-06T10:42:01.755Z,4.20
2018-12-06T10:44:29.243Z,4.30
2018-12-06T10:46:55.959Z,4.40
2018-12-06T10:49:22.670Z,4.60
2018-12-06T10:51:49.615Z,4.80
2018-12-06T10:54:16.319Z,4.90
2018-12-06T10:56:43.036Z,5.20
2018-12-06T10:59:09.742Z,5.60
2018-12-06T11:01:42.383Z,6.40
2018-12-06T11:04:09.091Z,6.60
2018-12-06T11:06:35.815Z,6.80
2018-12-06T11:09:04.362Z,6.80
2018-12-06T11:11:32.108Z,6.40
2018-12-06T11:13:58.820Z,6.20
2018-12-06T11:16:25.538Z,6.10
2018-12-06T11:18:52.299Z,6.10
2018-12-06T11:21:19.015Z,6.00
2018-12-06T11:23:45.722Z,5.90
2018-12-06T11:26:19.383Z,5.80
2018-12-06T11:28:46.198Z,5.70
2018-12-06T11:31:12.911Z,5.70
2018-12-06T11:33:39.611Z,5.70
2018-12-06T11:36:06.323Z,5.80
2018-12-06T11:38:33.022Z,5.80
2018-12-06T11:40:59.734Z,5.90
2018-12-06T11:43:26.448Z,5.90
2018-12-06T11:45:53.163Z,5.80
2018-12-06T11:48:26.722Z,5.80
2018-12-06T11:50:48.586Z,5.80
2018-12-06T11:53:15.287Z,5.90
2018-12-06T11:55:42.007Z,5.80
2018-12-06T11:58:11.604Z,6.00
2018-12-06T12:00:37.467Z,6.00
2018-12-06T12:03:04.178Z,6.10
2018-12-06T12:05:30.879Z,6.10
2018-12-06T12:07:57.601Z,6.00
2018-12-06T12:10:24.308Z,5.90
2018-12-06T12:12:51.023Z,5.80
2018-12-06T12:15:17.727Z,5.80
2018-12-06T12:17:44.438Z,5.80
2018-12-06T12:20:11.139Z,5.80
2018-12-06T12:22:37.850Z,5.70
2018-12-06T12:25:04.843Z,5.80
2018-12-06T12:27:31.559Z,5.80
2018-12-06T12:29:58.271Z,5.80
2018-12-06T12:32:24.979Z,5.80
2018-12-06T12:34:51.687Z,5.90
2018-12-06T12:37:18.395Z,5.90
2018-12-06T12:39:45.094Z,5.90
2018-12-06T12:42:11.804Z,6.00
2018-12-06T12:44:38.503Z,6.00
2018-12-06T12:47:05.483Z,6.00
2018-12-06T12:49:32.178Z,6.00
2018-12-06T12:51:58.896Z,6.00
2018-12-06T12:54:25.592Z,6.00
2018-12-06T12:56:52.298Z,5.90
2018-12-06T12:59:19.015Z,5.90
2018-12-06T13:01:45.723Z,5.80
2018-12-06T13:04:12.427Z,5.80
2018-12-06T13:06:39.147Z,5.80
2018-12-06T13:09:06.482Z,5.80
2018-12-06T13:11:33.199Z,5.80
2018-12-06T13:13:59.907Z,5.80
2018-12-06T13:16:26.614Z,5.80
2018-12-06T13:18:53.318Z,5.80
2018-12-06T13:21:20.151Z,5.80
2018-12-06T13:23:46.857Z,5.80
2018-12-06T13:26:13.594Z,5.80
2018-12-06T13:28:40.327Z,5.90
2018-12-06T13:31:07.119Z,5.80
2018-12-06T13:33:33.855Z,5.80
2018-12-06T13:36:00.558Z,5.80
2018-12-06T13:38:27.287Z,5.80
2018-12-06T13:40:53.995Z,5.80
2018-12-06T13:43:20.727Z,5.80
2018-12-06T13:45:47.447Z,5.80
2018-12-06T13:48:14.182Z,5.80
2018-12-06T13:50:41.002Z,5.80
2018-12-06T13:53:07.734Z,5.80
2018-12-06T13:55:34.434Z,5.80
2018-12-06T13:58:01.195Z,5.90
2018-12-06T14:00:28.235Z,5.90
2018-12-06T14:02:55.148Z,5.90
2018-12-06T14:05:21.855Z,5.90
2018-12-06T14:07:48.620Z,5.90
2018-12-06T14:10:15.315Z,5.90
2018-12-06T14:12:42.050Z,5.90
2018-12-06T14:15:08.747Z,5.90
2018-12-06T14:17:35.478Z,6.00
2018-12-06T14:20:02.192Z,6.00
2018-12-06T14:22:28.949Z,6.00
2018-12-06T14:24:55.682Z,6.00
2018-12-06T14:27:22.408Z,6.00
2018-12-06T14:29:49.103Z,6.00
2018-12-06T14:32:15.834Z,5.90
2018-12-06T14:34:42.542Z,6.00
2018-12-06T14:37:09.235Z,6.00
2018-12-06T14:39:35.970Z,6.00
2018-12-06T14:42:02.774Z,6.00
2018-12-06T14:44:29.506Z,6.00
2018-12-06T14:46:56.231Z,6.00
2018-12-06T14:49:22.956Z,6.00
2018-12-06T14:51:49.658Z,6.00
2018-12-06T14:54:16.382Z,6.00
2018-12-06T14:56:43.198Z,6.00
2018-12-06T14:59:09.927Z,6.00
2018-12-06T15:01:36.627Z,6.00
2018-12-06T15:04:03.610Z,6.00
2018-12-06T15:06:37.386Z,6.00
2018-12-06T15:08:59.090Z,6.10
2018-12-06T15:11:25.794Z,6.00
2018-12-06T15:13:52.529Z,6.00
2018-12-06T15:16:19.255Z,6.00
2018-12-06T15:18:45.994Z,6.00
2018-12-06T15:21:12.702Z,6.00
2018-12-06T15:23:39.426Z,6.00
2018-12-06T15:26:06.126Z,6.00
2018-12-06T15:28:32.863Z,6.00
2018-12-06T15:30:59.562Z,6.00
2018-12-06T15:33:26.287Z,6.00
2018-12-06T15:35:52.982Z,6.00
2018-12-06T15:38:19.751Z,6.00
2018-12-06T15:40:46.758Z,6.00
2018-12-06T15:43:13.483Z,6.00
2018-12-06T15:45:40.283Z,6.00
2018-12-06T15:48:07.139Z,6.00
2018-12-06T15:50:33.844Z,6.00
2018-12-06T15:53:00.615Z,6.00
2018-12-06T15:55:27.328Z,6.00
2018-12-06T15:57:54.038Z,6.00
2018-12-06T16:00:20.781Z,6.00
2018-12-06T16:02:47.494Z,6.00
2018-12-06T16:05:14.321Z,6.00
2018-12-06T16:07:41.026Z,6.00
2018-12-06T16:10:08.319Z,6.00
2018-12-06T16:12:35.026Z,6.00
2018-12-06T16:15:01.763Z,6.00
2018-12-06T16:17:28.483Z,6.00
2018-12-06T16:19:55.290Z,6.00
2018-12-06T16:22:23.026Z,6.00
2018-12-06T16:24:49.759Z,6.00
2018-12-06T16:27:16.462Z,6.00
2018-12-06T16:29:51.248Z,6.00
2018-12-06T16:32:11.930Z,6.10
2018-12-06T16:34:38.667Z,6.10
2018-12-06T16:37:05.369Z,6.10
2018-12-06T16:39:32.127Z,6.10
2018-12-06T16:41:58.830Z,6.20
2018-12-06T16:44:25.565Z,6.30
2018-12-06T16:46:52.271Z,6.30
2018-12-06T16:49:18.999Z,6.40
2018-12-06T16:51:45.699Z,6.50
2018-12-06T16:54:12.435Z,6.60
2018-12-06T16:56:40.179Z,6.70
2018-12-06T16:59:07.111Z,6.70
2018-12-06T17:01:33.819Z,6.60
2018-12-06T17:04:00.546Z,6.60
2018-12-06T17:06:27.350Z,6.60
2018-12-06T17:08:54.087Z,6.50
2018-12-06T17:11:27.798Z,6.50
2018-12-06T17:13:54.526Z,6.50
2018-12-06T17:16:21.234Z,6.50
2018-12-06T17:18:47.935Z,6.60
2018-12-06T17:21:14.667Z,6.60
2018-12-06T17:23:41.375Z,6.60
2018-12-06T17:26:08.111Z,6.70
2018-12-06T17:28:34.851Z,6.70
2018-12-06T17:31:01.589Z,6.70
2018-12-06T17:33:28.322Z,6.80
2018-12-06T17:35:55.058Z,6.80
2018-12-06T17:38:21.759Z,6.80
2018-12-06T17:40:48.502Z,6.90
2018-12-06T17:43:15.219Z,6.90
2018-12-06T17:45:41.956Z,6.90
2018-12-06T17:48:08.699Z,7.00
2018-12-06T17:50:35.431Z,7.00
2018-12-06T17:53:02.278Z,7.00
2018-12-06T17:55:29.002Z,7.00
2018-12-06T17:57:55.702Z,7.00
2018-12-06T18:00:22.426Z,7.00
2018-12-06T18:02:49.159Z,7.00
2018-12-06T18:05:15.890Z,7.10
2018-12-06T18:07:49.399Z,7.10
2018-12-06T18:10:16.250Z,7.10
2018-12-06T18:12:42.959Z,7.10
2018-12-06T18:15:09.683Z,7.10
2018-12-06T18:17:36.386Z,7.20
2018-12-06T18:20:03.550Z,7.20
2018-12-06T18:22:30.259Z,7.20
2018-12-06T18:24:56.991Z,7.20
2018-12-06T18:27:23.695Z,7.20
2018-12-06T18:29:50.435Z,7.20
2018-12-06T18:32:17.838Z,7.20
2018-12-06T18:34:44.543Z,7.20
2018-12-06T18:37:11.266Z,7.20
2018-12-06T18:39:37.962Z,7.20
2018-12-06T18:42:04.690Z,7.20
2018-12-06T18:44:31.503Z,7.30
2018-12-06T18:46:58.234Z,7.30
2018-12-06T18:49:24.942Z,7.20
2018-12-06T18:51:51.674Z,7.30
2018-12-06T18:54:19.892Z,7.30
2018-12-06T18:56:46.624Z,7.30
2018-12-06T18:59:13.326Z,7.30
2018-12-06T19:01:40.080Z,7.30
2018-12-06T19:04:06.783Z,7.20
2018-12-06T19:06:38.118Z,7.30
2018-12-06T19:09:04.907Z,7.30
2018-12-06T19:11:31.648Z,7.30
2018-12-06T19:13:58.354Z,7.30
2018-12-06T19:16:25.077Z,7.30
2018-12-06T19:18:52.278Z,7.30
2018-12-06T19:21:19.808Z,7.30
2018-12-06T19:23:46.511Z,7.30
2018-12-06T19:26:13.251Z,7.30
2018-12-06T19:28:40.254Z,7.30
2018-12-06T19:31:07.293Z,7.30
2018-12-06T19:33:34.007Z,7.40
2018-12-06T19:36:00.743Z,7.40
2018-12-06T19:38:27.446Z,7.40
2018-12-06T19:40:54.174Z,7.50
2018-12-06T19:43:20.960Z,7.50
2018-12-06T19:45:47.827Z,7.60
2018-12-06T19:48:14.534Z,7.60
2018-12-06T19:50:41.262Z,7.70
2018-12-06T19:53:07.967Z,7.70
2018-12-06T19:55:34.694Z,7.70
2018-12-06T19:58:01.394Z,7.70
2018-12-06T20:00:28.139Z,7.70
2018-12-06T20:02:54.905Z,7.70
2018-12-06T20:05:21.611Z,7.60
2018-12-06T20:07:48.355Z,7.60
2018-12-06T20:10:15.071Z,7.60
2018-12-06T20:12:41.814Z,7.60
2018-12-06T20:15:08.518Z,7.50
2018-12-06T20:17:35.354Z,7.50
2018-12-06T20:20:02.059Z,7.60
2018-12-06T20:22:28.803Z,7.50
2018-12-06T20:24:55.506Z,7.50
2018-12-06T20:27:22.255Z,7.50
2018-12-06T20:29:48.958Z,7.50
2018-12-06T20:32:15.670Z,7.50
2018-12-06T20:34:42.387Z,7.50
2018-12-06T20:37:09.091Z,7.50
2018-12-06T20:39:35.879Z,7.60
2018-12-06T20:42:02.670Z,7.60
2018-12-06T20:44:29.388Z,7.60
2018-12-06T20:46:56.098Z,7.70
2018-12-06T20:49:22.801Z,7.70
2018-12-06T20:51:49.507Z,7.70
2018-12-06T20:54:16.206Z,7.80
2018-12-06T20:56:43.274Z,7.80
2018-12-06T20:59:09.970Z,7.80
2018-12-06T21:01:36.687Z,7.80
2018-12-06T21:04:03.395Z,7.80
2018-12-06T21:06:30.135Z,7.80
2018-12-06T21:08:57.534Z,7.80
2018-12-06T21:11:24.256Z,7.80
2018-12-06T21:13:57.883Z,7.90
2018-12-06T21:16:25.443Z,7.90
2018-12-06T21:18:52.571Z,8.00
2018-12-06T21:21:19.484Z,8.00
2018-12-06T21:23:46.283Z,8.00
2018-12-06T21:26:12.995Z,8.00
2018-12-06T21:28:39.702Z,8.10
2018-12-06T21:31:06.410Z,8.10
2018-12-06T21:33:33.116Z,8.10
2018-12-06T21:35:59.831Z,8.20
2018-12-06T21:38:26.551Z,8.20
2018-12-06T21:40:53.263Z,8.20
2018-12-06T21:43:19.999Z,8.20
2018-12-06T21:45:46.709Z,8.30
2018-12-06T21:48:13.419Z,8.30
2018-12-06T21:50:40.136Z,8.30
2018-12-06T21:53:06.839Z,8.30
2018-12-06T21:55:33.554Z,8.30
2018-12-06T21:58:00.263Z,8.30
2018-12-06T22:00:27.210Z,8.30
2018-12-06T22:02:53.918Z,8.30
2018-12-06T22:05:20.635Z,8.30
2018-12-06T22:07:47.346Z,8.30
2018-12-06T22:10:14.042Z,8.30
2018-12-06T22:12:40.759Z,8.30
2018-12-06T22:15:07.462Z,8.30
2018-12-06T22:17:34.247Z,8.30
2018-12-06T22:20:01.007Z,8.30
2018-12-06T22:22:27.722Z,8.40
2018-12-06T22:24:54.423Z,8.40
2018-12-06T22:27:21.134Z,8.40
2018-12-06T22:29:47.838Z,8.40
2018-12-06T22:32:14.551Z,8.40
2018-12-06T22:34:41.267Z,8.40
2018-12-06T22:37:07.978Z,8.50
2018-12-06T22:39:34.691Z,8.50
2018-12-06T22:42:01.407Z,8.50
2018-12-06T22:44:28.110Z,8.60
2018-12-06T22:46:54.828Z,8.60
2018-12-06T22:49:21.530Z,8.60
2018-12-06T22:51:48.239Z,8.60
2018-12-06T22:54:14.950Z,8.60
2018-12-06T22:56:41.662Z,8.70
2018-12-06T22:59:08.367Z,8.60
2018-12-06T23:01:39.070Z,8.60
2018-12-06T23:04:05.775Z,8.60
2018-12-06T23:06:32.487Z,8.60
2018-12-06T23:08:59.194Z,8.70
2018-12-06T23:11:26.107Z,8.70
2018-12-06T23:13:53.047Z,8.70
2018-12-06T23:16:19.771Z,8.70
2018-12-06T23:18:46.480Z,8.70
2018-12-06T23:21:13.318Z,8.70
2018-12-06T23:23:40.018Z,8.70
2018-12-06T23:26:06.731Z,8.70
2018-12-06T23:28:33.435Z,8.70
2018-12-06T23:31:00.149Z,8.70
2018-12-06T23:33:31.997Z,8.70
2018-12-06T23:35:56.087Z,8.70
2018-12-06T23:38:22.795Z,8.70
2018-12-06T23:40:49.498Z,8.70
2018-12-06T23:43:16.215Z,8.70
2018-12-06T23:45:42.915Z,8.70
2018-12-06T23:48:09.727Z,8.80
2018-12-06T23:50:36.435Z,8.80
2018-12-06T23:53:03.147Z,8.80
2018-12-06T23:55:29.858Z,8.80
2018-12-06T23:57:56.573Z,8.80
